sensor_id;sensor_type;location;lat;lon;timestamp;P1;durP1;ratioP1;P2;durP2;ratioP2
71154;SDS011;59375;53.216;5.728;2022-09-13T00:00:18;12.38;;;7.85;;
71154;SDS011;59375;53.216;5.728;2022-09-13T00:02:43;11.02;;;7.75;;
71154;SDS011;59375;53.216;5.728;2022-09-13T00:05:09;10.20;;;7.82;;
71154;SDS011;59375;53.216;5.728;2022-09-13T00:07:35;10.10;;;7.53;;
71154;SDS011;59375;53.216;5.728;2022-09-13T00:10:00;10.55;;;7.40;;
71154;SDS011;59375;53.216;5.728;2022-09-13T00:12:26;8.02;;;6.53;;
71154;SDS011;59375;53.216;5.728;2022-09-13T00:14:51;9.75;;;7.25;;
71154;SDS011;59375;53.216;5.728;2022-09-13T00:17:17;11.40;;;7.25;;
71154;SDS011;59375;53.216;5.728;2022-09-13T00:19:42;9.13;;;6.90;;
71154;SDS011;59375;53.216;5.728;2022-09-13T00:22:08;10.23;;;7.70;;
71154;SDS011;59375;53.216;5.728;2022-09-13T00:24:34;12.23;;;8.10;;
71154;SDS011;59375;53.216;5.728;2022-09-13T00:27:00;11.77;;;8.63;;
71154;SDS011;59375;53.216;5.728;2022-09-13T00:29:25;9.90;;;7.78;;
71154;SDS011;59375;53.216;5.728;2022-09-13T00:31:51;13.52;;;9.52;;
71154;SDS011;59375;53.216;5.728;2022-09-13T00:34:17;12.07;;;9.10;;
71154;SDS011;59375;53.216;5.728;2022-09-13T00:36:42;12.77;;;9.10;;
71154;SDS011;59375;53.216;5.728;2022-09-13T00:39:09;11.77;;;9.13;;
71154;SDS011;59375;53.216;5.728;2022-09-13T00:41:35;14.07;;;9.50;;
71154;SDS011;59375;53.216;5.728;2022-09-13T00:44:01;11.57;;;9.05;;
71154;SDS011;59375;53.216;5.728;2022-09-13T00:46:38;12.65;;;9.20;;
71154;SDS011;59375;53.216;5.728;2022-09-13T00:49:22;10.95;;;7.93;;
71154;SDS011;59375;53.216;5.728;2022-09-13T00:51:58;11.63;;;8.15;;
71154;SDS011;59375;53.216;5.728;2022-09-13T00:54:28;12.13;;;8.70;;
71154;SDS011;59375;53.216;5.728;2022-09-13T00:56:58;10.70;;;8.45;;
71154;SDS011;59375;53.216;5.728;2022-09-13T00:59:30;12.52;;;8.82;;
71154;SDS011;59375;53.216;5.728;2022-09-13T01:02:00;12.40;;;8.30;;
71154;SDS011;59375;53.216;5.728;2022-09-13T01:04:28;14.02;;;8.95;;
71154;SDS011;59375;53.216;5.728;2022-09-13T01:06:56;12.68;;;8.98;;
71154;SDS011;59375;53.216;5.728;2022-09-13T01:09:26;12.88;;;8.38;;
71154;SDS011;59375;53.216;5.728;2022-09-13T01:12:00;15.35;;;9.98;;
71154;SDS011;59375;53.216;5.728;2022-09-13T01:14:34;12.57;;;9.27;;
71154;SDS011;59375;53.216;5.728;2022-09-13T01:17:01;12.80;;;9.63;;
71154;SDS011;59375;53.216;5.728;2022-09-13T01:19:26;14.25;;;10.13;;
71154;SDS011;59375;53.216;5.728;2022-09-13T01:28:34;14.55;;;9.48;;
71154;SDS011;59375;53.216;5.728;2022-09-13T01:42:03;10.02;;;7.20;;
71154;SDS011;59375;53.216;5.728;2022-09-13T01:44:52;12.48;;;7.57;;
71154;SDS011;59375;53.216;5.728;2022-09-13T01:47:30;8.88;;;6.53;;
71154;SDS011;59375;53.216;5.728;2022-09-13T01:50:11;12.95;;;6.78;;
71154;SDS011;59375;53.216;5.728;2022-09-13T01:55:44;8.90;;;5.57;;
71154;SDS011;59375;53.216;5.728;2022-09-13T01:58:20;9.63;;;5.82;;
71154;SDS011;59375;53.216;5.728;2022-09-13T02:01:03;6.93;;;5.15;;
71154;SDS011;59375;53.216;5.728;2022-09-13T02:06:20;14.07;;;3.17;;
71154;SDS011;59375;53.216;5.728;2022-09-13T02:08:53;6.50;;;2.10;;
71154;SDS011;59375;53.216;5.728;2022-09-13T02:11:21;5.20;;;2.05;;
71154;SDS011;59375;53.216;5.728;2022-09-13T02:16:35;4.57;;;1.50;;
71154;SDS011;59375;53.216;5.728;2022-09-13T02:19:09;4.40;;;1.70;;
71154;SDS011;59375;53.216;5.728;2022-09-13T02:21:40;5.13;;;1.70;;
71154;SDS011;59375;53.216;5.728;2022-09-13T02:24:10;5.40;;;1.67;;
71154;SDS011;59375;53.216;5.728;2022-09-13T02:26:41;4.25;;;1.40;;
71154;SDS011;59375;53.216;5.728;2022-09-13T02:29:13;5.03;;;1.50;;
71154;SDS011;59375;53.216;5.728;2022-09-13T02:31:55;4.70;;;1.58;;
71154;SDS011;59375;53.216;5.728;2022-09-13T02:34:28;4.20;;;1.52;;
71154;SDS011;59375;53.216;5.728;2022-09-13T02:37:01;7.03;;;1.95;;
71154;SDS011;59375;53.216;5.728;2022-09-13T02:39:31;5.35;;;1.60;;
71154;SDS011;59375;53.216;5.728;2022-09-13T02:42:09;5.85;;;1.77;;
71154;SDS011;59375;53.216;5.728;2022-09-13T02:44:43;3.97;;;1.48;;
71154;SDS011;59375;53.216;5.728;2022-09-13T02:47:20;5.45;;;1.67;;
71154;SDS011;59375;53.216;5.728;2022-09-13T02:55:28;5.07;;;2.10;;
71154;SDS011;59375;53.216;5.728;2022-09-13T03:01:03;6.68;;;1.65;;
71154;SDS011;59375;53.216;5.728;2022-09-13T03:03:29;6.95;;;1.98;;
71154;SDS011;59375;53.216;5.728;2022-09-13T03:05:55;4.88;;;1.85;;
71154;SDS011;59375;53.216;5.728;2022-09-13T03:08:20;4.72;;;1.88;;
71154;SDS011;59375;53.216;5.728;2022-09-13T03:19:32;7.03;;;2.00;;
71154;SDS011;59375;53.216;5.728;2022-09-13T03:24:55;9.45;;;1.92;;
71154;SDS011;59375;53.216;5.728;2022-09-13T03:27:50;6.13;;;1.85;;
71154;SDS011;59375;53.216;5.728;2022-09-13T03:30:25;4.25;;;1.75;;
71154;SDS011;59375;53.216;5.728;2022-09-13T03:32:52;4.15;;;1.90;;
71154;SDS011;59375;53.216;5.728;2022-09-13T03:35:31;4.85;;;1.80;;
71154;SDS011;59375;53.216;5.728;2022-09-13T03:38:30;6.13;;;2.03;;
71154;SDS011;59375;53.216;5.728;2022-09-13T03:41:06;4.10;;;1.60;;
71154;SDS011;59375;53.216;5.728;2022-09-13T03:43:43;5.88;;;1.70;;
71154;SDS011;59375;53.216;5.728;2022-09-13T03:46:14;4.78;;;1.50;;
71154;SDS011;59375;53.216;5.728;2022-09-13T03:49:04;5.22;;;1.73;;
71154;SDS011;59375;53.216;5.728;2022-09-13T03:51:32;5.85;;;1.70;;
71154;SDS011;59375;53.216;5.728;2022-09-13T03:54:01;6.05;;;1.77;;
71154;SDS011;59375;53.216;5.728;2022-09-13T03:56:30;4.35;;;1.83;;
71154;SDS011;59375;53.216;5.728;2022-09-13T03:58:56;4.13;;;1.80;;
71154;SDS011;59375;53.216;5.728;2022-09-13T04:01:22;6.03;;;2.00;;
71154;SDS011;59375;53.216;5.728;2022-09-13T04:03:49;4.80;;;2.05;;
71154;SDS011;59375;53.216;5.728;2022-09-13T04:06:15;5.20;;;1.92;;
71154;SDS011;59375;53.216;5.728;2022-09-13T04:08:41;6.60;;;2.00;;
71154;SDS011;59375;53.216;5.728;2022-09-13T04:11:06;6.45;;;1.90;;
71154;SDS011;59375;53.216;5.728;2022-09-13T04:13:33;5.90;;;1.90;;
71154;SDS011;59375;53.216;5.728;2022-09-13T04:16:00;6.60;;;1.75;;
71154;SDS011;59375;53.216;5.728;2022-09-13T04:18:30;5.88;;;1.83;;
71154;SDS011;59375;53.216;5.728;2022-09-13T04:20:59;6.10;;;1.92;;
71154;SDS011;59375;53.216;5.728;2022-09-13T04:23:25;5.43;;;1.90;;
71154;SDS011;59375;53.216;5.728;2022-09-13T04:25:52;4.97;;;2.13;;
71154;SDS011;59375;53.216;5.728;2022-09-13T04:28:19;6.93;;;2.00;;
71154;SDS011;59375;53.216;5.728;2022-09-13T04:30:46;5.93;;;1.90;;
71154;SDS011;59375;53.216;5.728;2022-09-13T04:33:12;7.85;;;2.10;;
71154;SDS011;59375;53.216;5.728;2022-09-13T04:35:39;4.82;;;2.05;;
71154;SDS011;59375;53.216;5.728;2022-09-13T04:38:05;6.00;;;2.00;;
71154;SDS011;59375;53.216;5.728;2022-09-13T04:40:31;3.97;;;1.80;;
71154;SDS011;59375;53.216;5.728;2022-09-13T04:42:56;6.32;;;2.20;;
71154;SDS011;59375;53.216;5.728;2022-09-13T04:45:22;8.68;;;2.28;;
71154;SDS011;59375;53.216;5.728;2022-09-13T04:47:51;5.35;;;1.92;;
71154;SDS011;59375;53.216;5.728;2022-09-13T04:50:27;6.60;;;1.92;;
71154;SDS011;59375;53.216;5.728;2022-09-13T04:52:53;6.85;;;2.00;;
71154;SDS011;59375;53.216;5.728;2022-09-13T04:55:19;5.72;;;2.20;;
71154;SDS011;59375;53.216;5.728;2022-09-13T04:57:45;4.82;;;2.40;;
71154;SDS011;59375;53.216;5.728;2022-09-13T05:00:10;5.90;;;2.05;;
71154;SDS011;59375;53.216;5.728;2022-09-13T05:02:36;5.30;;;2.00;;
71154;SDS011;59375;53.216;5.728;2022-09-13T05:05:02;7.85;;;2.10;;
71154;SDS011;59375;53.216;5.728;2022-09-13T05:07:27;8.98;;;2.42;;
71154;SDS011;59375;53.216;5.728;2022-09-13T05:09:53;5.85;;;2.10;;
71154;SDS011;59375;53.216;5.728;2022-09-13T05:12:18;9.90;;;2.40;;
71154;SDS011;59375;53.216;5.728;2022-09-13T05:14:44;9.00;;;2.28;;
71154;SDS011;59375;53.216;5.728;2022-09-13T05:17:09;6.63;;;2.17;;
71154;SDS011;59375;53.216;5.728;2022-09-13T05:19:35;6.75;;;1.98;;
71154;SDS011;59375;53.216;5.728;2022-09-13T05:22:01;9.25;;;2.20;;
71154;SDS011;59375;53.216;5.728;2022-09-13T05:24:27;9.70;;;2.03;;
71154;SDS011;59375;53.216;5.728;2022-09-13T05:26:52;11.73;;;2.33;;
71154;SDS011;59375;53.216;5.728;2022-09-13T05:29:18;9.45;;;1.80;;
71154;SDS011;59375;53.216;5.728;2022-09-13T05:31:43;10.07;;;2.03;;
71154;SDS011;59375;53.216;5.728;2022-09-13T05:34:10;9.52;;;2.20;;
71154;SDS011;59375;53.216;5.728;2022-09-13T05:36:38;8.35;;;2.10;;
71154;SDS011;59375;53.216;5.728;2022-09-13T05:39:04;7.10;;;1.90;;
71154;SDS011;59375;53.216;5.728;2022-09-13T05:41:30;10.38;;;2.25;;
71154;SDS011;59375;53.216;5.728;2022-09-13T05:43:56;8.80;;;2.00;;
71154;SDS011;59375;53.216;5.728;2022-09-13T05:46:22;10.05;;;2.30;;
71154;SDS011;59375;53.216;5.728;2022-09-13T05:48:47;6.03;;;2.10;;
71154;SDS011;59375;53.216;5.728;2022-09-13T05:51:14;5.85;;;1.92;;
71154;SDS011;59375;53.216;5.728;2022-09-13T05:53:42;8.13;;;2.20;;
71154;SDS011;59375;53.216;5.728;2022-09-13T05:56:10;8.32;;;2.10;;
71154;SDS011;59375;53.216;5.728;2022-09-13T05:58:38;6.82;;;1.80;;
71154;SDS011;59375;53.216;5.728;2022-09-13T06:01:05;5.85;;;2.10;;
71154;SDS011;59375;53.216;5.728;2022-09-13T06:03:31;7.35;;;2.13;;
71154;SDS011;59375;53.216;5.728;2022-09-13T06:05:57;8.40;;;1.80;;
71154;SDS011;59375;53.216;5.728;2022-09-13T06:08:23;6.93;;;1.77;;
71154;SDS011;59375;53.216;5.728;2022-09-13T06:13:28;7.20;;;2.10;;
71154;SDS011;59375;53.216;5.728;2022-09-13T06:15:55;5.38;;;1.90;;
71154;SDS011;59375;53.216;5.728;2022-09-13T06:18:21;6.28;;;1.80;;
71154;SDS011;59375;53.216;5.728;2022-09-13T06:20:48;8.63;;;2.20;;
71154;SDS011;59375;53.216;5.728;2022-09-13T06:23:14;4.93;;;1.92;;
71154;SDS011;59375;53.216;5.728;2022-09-13T06:25:40;5.95;;;2.00;;
71154;SDS011;59375;53.216;5.728;2022-09-13T06:28:06;6.72;;;1.80;;
71154;SDS011;59375;53.216;5.728;2022-09-13T06:30:33;5.88;;;1.75;;
71154;SDS011;59375;53.216;5.728;2022-09-13T06:32:58;5.78;;;1.70;;
71154;SDS011;59375;53.216;5.728;2022-09-13T06:35:24;5.90;;;1.83;;
71154;SDS011;59375;53.216;5.728;2022-09-13T06:37:50;3.90;;;1.50;;
71154;SDS011;59375;53.216;5.728;2022-09-13T06:40:18;6.00;;;1.85;;
71154;SDS011;59375;53.216;5.728;2022-09-13T06:42:44;4.03;;;1.60;;
71154;SDS011;59375;53.216;5.728;2022-09-13T06:45:10;5.10;;;1.70;;
71154;SDS011;59375;53.216;5.728;2022-09-13T06:47:35;6.30;;;1.92;;
71154;SDS011;59375;53.216;5.728;2022-09-13T06:50:01;6.50;;;1.98;;
71154;SDS011;59375;53.216;5.728;2022-09-13T06:52:27;4.45;;;1.75;;
71154;SDS011;59375;53.216;5.728;2022-09-13T06:54:52;5.05;;;1.70;;
71154;SDS011;59375;53.216;5.728;2022-09-13T06:57:18;3.60;;;1.55;;
71154;SDS011;59375;53.216;5.728;2022-09-13T06:59:44;4.88;;;1.60;;
71154;SDS011;59375;53.216;5.728;2022-09-13T07:02:10;7.57;;;1.75;;
71154;SDS011;59375;53.216;5.728;2022-09-13T07:04:37;5.38;;;1.63;;
71154;SDS011;59375;53.216;5.728;2022-09-13T07:07:02;7.38;;;1.70;;
71154;SDS011;59375;53.216;5.728;2022-09-13T07:09:28;4.45;;;1.45;;
71154;SDS011;59375;53.216;5.728;2022-09-13T07:11:54;5.13;;;1.52;;
71154;SDS011;59375;53.216;5.728;2022-09-13T07:14:23;4.95;;;1.63;;
71154;SDS011;59375;53.216;5.728;2022-09-13T07:16:49;5.88;;;1.70;;
71154;SDS011;59375;53.216;5.728;2022-09-13T07:19:16;4.10;;;1.52;;
71154;SDS011;59375;53.216;5.728;2022-09-13T07:21:44;4.60;;;1.60;;
71154;SDS011;59375;53.216;5.728;2022-09-13T07:24:10;5.03;;;1.70;;
71154;SDS011;59375;53.216;5.728;2022-09-13T07:26:36;9.63;;;2.05;;
71154;SDS011;59375;53.216;5.728;2022-09-13T07:29:03;10.48;;;1.77;;
71154;SDS011;59375;53.216;5.728;2022-09-13T07:31:32;9.65;;;1.90;;
71154;SDS011;59375;53.216;5.728;2022-09-13T07:34:00;6.43;;;1.70;;
71154;SDS011;59375;53.216;5.728;2022-09-13T07:36:31;7.18;;;1.90;;
71154;SDS011;59375;53.216;5.728;2022-09-13T07:38:57;5.57;;;1.50;;
71154;SDS011;59375;53.216;5.728;2022-09-13T07:41:24;4.40;;;1.60;;
71154;SDS011;59375;53.216;5.728;2022-09-13T07:43:51;5.70;;;1.75;;
71154;SDS011;59375;53.216;5.728;2022-09-13T07:46:18;5.75;;;1.60;;
71154;SDS011;59375;53.216;5.728;2022-09-13T07:48:45;7.00;;;1.90;;
71154;SDS011;59375;53.216;5.728;2022-09-13T07:51:15;7.28;;;1.90;;
71154;SDS011;59375;53.216;5.728;2022-09-13T07:53:44;4.97;;;1.65;;
71154;SDS011;59375;53.216;5.728;2022-09-13T07:58:47;5.70;;;1.60;;
71154;SDS011;59375;53.216;5.728;2022-09-13T08:01:17;6.35;;;1.75;;
71154;SDS011;59375;53.216;5.728;2022-09-13T08:03:47;4.85;;;1.80;;
71154;SDS011;59375;53.216;5.728;2022-09-13T08:06:25;7.85;;;1.73;;
71154;SDS011;59375;53.216;5.728;2022-09-13T08:08:52;6.97;;;1.65;;
71154;SDS011;59375;53.216;5.728;2022-09-13T08:11:21;5.93;;;1.63;;
71154;SDS011;59375;53.216;5.728;2022-09-13T08:13:48;5.85;;;1.70;;
71154;SDS011;59375;53.216;5.728;2022-09-13T08:16:15;5.85;;;1.67;;
71154;SDS011;59375;53.216;5.728;2022-09-13T08:18:46;5.55;;;1.50;;
71154;SDS011;59375;53.216;5.728;2022-09-13T08:21:13;7.13;;;1.70;;
71154;SDS011;59375;53.216;5.728;2022-09-13T08:23:39;6.15;;;1.85;;
71154;SDS011;59375;53.216;5.728;2022-09-13T08:26:05;7.05;;;1.50;;
71154;SDS011;59375;53.216;5.728;2022-09-13T08:28:32;5.65;;;1.73;;
71154;SDS011;59375;53.216;5.728;2022-09-13T08:31:05;7.43;;;1.90;;
71154;SDS011;59375;53.216;5.728;2022-09-13T08:33:45;4.95;;;1.60;;
71154;SDS011;59375;53.216;5.728;2022-09-13T08:36:15;5.60;;;1.60;;
71154;SDS011;59375;53.216;5.728;2022-09-13T08:38:47;7.57;;;1.88;;
71154;SDS011;59375;53.216;5.728;2022-09-13T08:46:47;5.30;;;1.50;;
71154;SDS011;59375;53.216;5.728;2022-09-13T08:49:18;6.60;;;1.85;;
71154;SDS011;59375;53.216;5.728;2022-09-13T08:51:50;6.15;;;1.70;;
71154;SDS011;59375;53.216;5.728;2022-09-13T08:54:19;7.93;;;2.30;;
71154;SDS011;59375;53.216;5.728;2022-09-13T09:02:03;8.75;;;1.60;;
71154;SDS011;59375;53.216;5.728;2022-09-13T09:05:14;6.07;;;1.58;;
71154;SDS011;59375;53.216;5.728;2022-09-13T09:07:46;9.27;;;1.80;;
71154;SDS011;59375;53.216;5.728;2022-09-13T09:10:46;4.82;;;1.67;;
71154;SDS011;59375;53.216;5.728;2022-09-13T09:15:41;7.57;;;1.60;;
71154;SDS011;59375;53.216;5.728;2022-09-13T09:18:16;8.10;;;1.70;;
71154;SDS011;59375;53.216;5.728;2022-09-13T09:20:51;7.35;;;1.73;;
71154;SDS011;59375;53.216;5.728;2022-09-13T09:28:46;5.53;;;1.60;;
71154;SDS011;59375;53.216;5.728;2022-09-13T09:36:57;4.72;;;1.60;;
71154;SDS011;59375;53.216;5.728;2022-09-13T09:39:26;4.78;;;1.70;;
71154;SDS011;59375;53.216;5.728;2022-09-13T09:41:57;5.50;;;1.60;;
71154;SDS011;59375;53.216;5.728;2022-09-13T09:44:27;5.97;;;1.63;;
71154;SDS011;59375;53.216;5.728;2022-09-13T09:47:05;6.15;;;1.70;;
71154;SDS011;59375;53.216;5.728;2022-09-13T09:49:40;6.93;;;1.60;;
71154;SDS011;59375;53.216;5.728;2022-09-13T09:57:54;8.45;;;2.20;;
71154;SDS011;59375;53.216;5.728;2022-09-13T10:00:21;6.78;;;1.60;;
71154;SDS011;59375;53.216;5.728;2022-09-13T10:02:50;5.68;;;1.70;;
71154;SDS011;59375;53.216;5.728;2022-09-13T10:05:18;5.07;;;1.85;;
71154;SDS011;59375;53.216;5.728;2022-09-13T10:07:53;5.90;;;1.98;;
71154;SDS011;59375;53.216;5.728;2022-09-13T10:13:11;6.18;;;2.00;;
71154;SDS011;59375;53.216;5.728;2022-09-13T10:15:50;5.03;;;1.73;;
71154;SDS011;59375;53.216;5.728;2022-09-13T10:18:22;5.47;;;1.70;;
71154;SDS011;59375;53.216;5.728;2022-09-13T10:21:06;5.80;;;1.40;;
71154;SDS011;59375;53.216;5.728;2022-09-13T10:23:46;4.22;;;1.50;;
71154;SDS011;59375;53.216;5.728;2022-09-13T10:26:21;5.80;;;1.80;;
71154;SDS011;59375;53.216;5.728;2022-09-13T10:31:34;4.97;;;1.50;;
71154;SDS011;59375;53.216;5.728;2022-09-13T10:34:06;4.93;;;1.60;;
71154;SDS011;59375;53.216;5.728;2022-09-13T10:36:40;6.03;;;1.60;;
71154;SDS011;59375;53.216;5.728;2022-09-13T10:39:13;5.15;;;1.70;;
71154;SDS011;59375;53.216;5.728;2022-09-13T10:41:42;5.65;;;1.77;;
71154;SDS011;59375;53.216;5.728;2022-09-13T10:47:11;5.00;;;1.60;;
71154;SDS011;59375;53.216;5.728;2022-09-13T10:55:22;9.10;;;2.00;;
71154;SDS011;59375;53.216;5.728;2022-09-13T10:57:49;9.43;;;2.10;;
71154;SDS011;59375;53.216;5.728;2022-09-13T11:00:20;9.68;;;2.10;;
71154;SDS011;59375;53.216;5.728;2022-09-13T11:03:23;10.52;;;2.20;;
71154;SDS011;59375;53.216;5.728;2022-09-13T11:06:29;5.72;;;1.63;;
71154;SDS011;59375;53.216;5.728;2022-09-13T11:16:52;8.73;;;1.95;;
71154;SDS011;59375;53.216;5.728;2022-09-13T11:31:02;5.40;;;1.83;;
71154;SDS011;59375;53.216;5.728;2022-09-13T11:36:23;8.30;;;2.35;;
71154;SDS011;59375;53.216;5.728;2022-09-13T11:41:58;6.85;;;1.88;;
71154;SDS011;59375;53.216;5.728;2022-09-13T11:47:47;7.53;;;2.53;;
71154;SDS011;59375;53.216;5.728;2022-09-13T11:56:28;5.70;;;1.80;;
71154;SDS011;59375;53.216;5.728;2022-09-13T11:59:20;5.75;;;1.98;;
71154;SDS011;59375;53.216;5.728;2022-09-13T12:02:48;6.85;;;2.03;;
71154;SDS011;59375;53.216;5.728;2022-09-13T12:05:13;9.23;;;2.33;;
71154;SDS011;59375;53.216;5.728;2022-09-13T12:08:04;6.82;;;2.13;;
71154;SDS011;59375;53.216;5.728;2022-09-13T12:13:02;7.00;;;2.00;;
71154;SDS011;59375;53.216;5.728;2022-09-13T12:15:34;8.50;;;2.30;;
71154;SDS011;59375;53.216;5.728;2022-09-13T12:18:07;7.88;;;2.20;;
71154;SDS011;59375;53.216;5.728;2022-09-13T12:23:04;8.90;;;2.20;;
71154;SDS011;59375;53.216;5.728;2022-09-13T12:25:40;8.57;;;2.40;;
71154;SDS011;59375;53.216;5.728;2022-09-13T12:28:25;8.18;;;2.00;;
71154;SDS011;59375;53.216;5.728;2022-09-13T12:31:03;7.22;;;2.13;;
71154;SDS011;59375;53.216;5.728;2022-09-13T12:33:37;8.05;;;1.95;;
71154;SDS011;59375;53.216;5.728;2022-09-13T12:59:28;6.60;;;1.80;;
71154;SDS011;59375;53.216;5.728;2022-09-13T13:02:21;7.57;;;2.05;;
71154;SDS011;59375;53.216;5.728;2022-09-13T13:07:18;7.53;;;2.17;;
71154;SDS011;59375;53.216;5.728;2022-09-13T13:09:48;7.10;;;1.90;;
71154;SDS011;59375;53.216;5.728;2022-09-13T13:12:30;6.50;;;1.85;;
71154;SDS011;59375;53.216;5.728;2022-09-13T13:15:02;6.40;;;1.80;;
71154;SDS011;59375;53.216;5.728;2022-09-13T13:23:30;7.32;;;2.00;;
71154;SDS011;59375;53.216;5.728;2022-09-13T13:34:19;7.70;;;1.95;;
71154;SDS011;59375;53.216;5.728;2022-09-13T13:36:48;5.50;;;1.85;;
71154;SDS011;59375;53.216;5.728;2022-09-13T13:41:59;7.97;;;2.15;;
71154;SDS011;59375;53.216;5.728;2022-09-13T13:52:26;6.60;;;1.80;;
71154;SDS011;59375;53.216;5.728;2022-09-13T13:57:28;5.05;;;1.70;;
71154;SDS011;59375;53.216;5.728;2022-09-13T14:00:20;6.57;;;2.10;;
71154;SDS011;59375;53.216;5.728;2022-09-13T14:05:19;6.05;;;1.90;;
71154;SDS011;59375;53.216;5.728;2022-09-13T14:19:11;7.32;;;1.98;;
71154;SDS011;59375;53.216;5.728;2022-09-13T14:21:41;9.13;;;2.08;;
71154;SDS011;59375;53.216;5.728;2022-09-13T14:24:17;7.82;;;1.90;;
71154;SDS011;59375;53.216;5.728;2022-09-13T14:26:45;8.68;;;1.90;;
71154;SDS011;59375;53.216;5.728;2022-09-13T14:29:14;5.30;;;1.80;;
71154;SDS011;59375;53.216;5.728;2022-09-13T14:31:46;8.00;;;1.95;;
71154;SDS011;59375;53.216;5.728;2022-09-13T14:34:22;6.75;;;1.92;;
71154;SDS011;59375;53.216;5.728;2022-09-13T14:36:54;8.70;;;1.80;;
71154;SDS011;59375;53.216;5.728;2022-09-13T14:39:21;6.90;;;1.77;;
71154;SDS011;59375;53.216;5.728;2022-09-13T14:41:47;9.63;;;1.95;;
71154;SDS011;59375;53.216;5.728;2022-09-13T14:44:22;8.95;;;2.00;;
71154;SDS011;59375;53.216;5.728;2022-09-13T14:46:51;6.07;;;1.83;;
71154;SDS011;59375;53.216;5.728;2022-09-13T14:49:25;5.95;;;1.77;;
71154;SDS011;59375;53.216;5.728;2022-09-13T14:51:59;5.45;;;1.90;;
71154;SDS011;59375;53.216;5.728;2022-09-13T14:54:56;6.05;;;1.92;;
71154;SDS011;59375;53.216;5.728;2022-09-13T14:57:31;5.20;;;1.80;;
71154;SDS011;59375;53.216;5.728;2022-09-13T15:00:03;7.53;;;2.00;;
71154;SDS011;59375;53.216;5.728;2022-09-13T15:02:36;5.18;;;1.75;;
71154;SDS011;59375;53.216;5.728;2022-09-13T15:05:05;4.68;;;1.58;;
71154;SDS011;59375;53.216;5.728;2022-09-13T15:07:36;5.40;;;1.75;;
71154;SDS011;59375;53.216;5.728;2022-09-13T15:10:08;8.07;;;1.88;;
71154;SDS011;59375;53.216;5.728;2022-09-13T15:12:49;6.30;;;1.70;;
71154;SDS011;59375;53.216;5.728;2022-09-13T15:17:50;6.85;;;1.80;;
71154;SDS011;59375;53.216;5.728;2022-09-13T15:20:20;6.22;;;1.80;;
71154;SDS011;59375;53.216;5.728;2022-09-13T15:22:47;6.25;;;1.55;;
71154;SDS011;59375;53.216;5.728;2022-09-13T15:25:22;6.60;;;1.65;;
71154;SDS011;59375;53.216;5.728;2022-09-13T15:27:52;8.13;;;1.95;;
71154;SDS011;59375;53.216;5.728;2022-09-13T15:30:23;5.30;;;1.80;;
71154;SDS011;59375;53.216;5.728;2022-09-13T15:35:38;6.18;;;1.70;;
71154;SDS011;59375;53.216;5.728;2022-09-13T15:40:43;6.35;;;1.77;;
71154;SDS011;59375;53.216;5.728;2022-09-13T15:43:10;7.35;;;1.70;;
71154;SDS011;59375;53.216;5.728;2022-09-13T15:45:36;10.18;;;2.03;;
71154;SDS011;59375;53.216;5.728;2022-09-13T15:48:01;6.28;;;1.83;;
71154;SDS011;59375;53.216;5.728;2022-09-13T15:50:27;6.78;;;1.80;;
71154;SDS011;59375;53.216;5.728;2022-09-13T15:52:58;9.73;;;1.77;;
71154;SDS011;59375;53.216;5.728;2022-09-13T15:55:25;6.78;;;1.80;;
71154;SDS011;59375;53.216;5.728;2022-09-13T15:57:52;6.03;;;1.83;;
71154;SDS011;59375;53.216;5.728;2022-09-13T16:00:21;8.25;;;2.13;;
71154;SDS011;59375;53.216;5.728;2022-09-13T16:02:48;9.13;;;2.10;;
71154;SDS011;59375;53.216;5.728;2022-09-13T16:05:14;7.40;;;1.77;;
71154;SDS011;59375;53.216;5.728;2022-09-13T16:07:40;7.55;;;1.63;;
71154;SDS011;59375;53.216;5.728;2022-09-13T16:10:14;7.65;;;1.88;;
71154;SDS011;59375;53.216;5.728;2022-09-13T16:12:43;8.18;;;2.40;;
71154;SDS011;59375;53.216;5.728;2022-09-13T16:15:09;8.27;;;1.98;;
71154;SDS011;59375;53.216;5.728;2022-09-13T16:17:36;5.45;;;1.60;;
71154;SDS011;59375;53.216;5.728;2022-09-13T16:20:02;8.10;;;1.90;;
71154;SDS011;59375;53.216;5.728;2022-09-13T16:22:28;5.80;;;1.50;;
71154;SDS011;59375;53.216;5.728;2022-09-13T16:24:54;6.25;;;1.58;;
71154;SDS011;59375;53.216;5.728;2022-09-13T16:27:19;4.93;;;1.50;;
71154;SDS011;59375;53.216;5.728;2022-09-13T16:29:45;6.38;;;1.88;;
71154;SDS011;59375;53.216;5.728;2022-09-13T16:32:11;6.75;;;1.67;;
71154;SDS011;59375;53.216;5.728;2022-09-13T16:34:37;7.03;;;1.58;;
71154;SDS011;59375;53.216;5.728;2022-09-13T16:37:03;6.85;;;1.70;;
71154;SDS011;59375;53.216;5.728;2022-09-13T16:39:28;6.25;;;1.60;;
71154;SDS011;59375;53.216;5.728;2022-09-13T16:41:54;5.93;;;1.40;;
71154;SDS011;59375;53.216;5.728;2022-09-13T16:44:19;7.63;;;1.70;;
71154;SDS011;59375;53.216;5.728;2022-09-13T16:46:45;6.72;;;1.60;;
71154;SDS011;59375;53.216;5.728;2022-09-13T16:49:11;3.67;;;1.45;;
71154;SDS011;59375;53.216;5.728;2022-09-13T16:51:36;5.85;;;1.50;;
71154;SDS011;59375;53.216;5.728;2022-09-13T16:54:02;6.13;;;1.60;;
71154;SDS011;59375;53.216;5.728;2022-09-13T16:56:28;5.45;;;1.60;;
71154;SDS011;59375;53.216;5.728;2022-09-13T16:58:54;4.90;;;1.50;;
71154;SDS011;59375;53.216;5.728;2022-09-13T17:01:25;4.78;;;1.52;;
71154;SDS011;59375;53.216;5.728;2022-09-13T17:03:52;5.38;;;1.60;;
71154;SDS011;59375;53.216;5.728;2022-09-13T17:06:19;5.72;;;1.88;;
71154;SDS011;59375;53.216;5.728;2022-09-13T17:08:46;3.70;;;1.40;;
71154;SDS011;59375;53.216;5.728;2022-09-13T17:11:14;5.97;;;1.33;;
71154;SDS011;59375;53.216;5.728;2022-09-13T17:13:43;3.15;;;1.40;;
71154;SDS011;59375;53.216;5.728;2022-09-13T17:18:56;2.65;;;1.30;;
71154;SDS011;59375;53.216;5.728;2022-09-13T17:21:22;6.97;;;1.63;;
71154;SDS011;59375;53.216;5.728;2022-09-13T17:23:48;5.32;;;1.58;;
71154;SDS011;59375;53.216;5.728;2022-09-13T17:26:14;4.28;;;1.48;;
71154;SDS011;59375;53.216;5.728;2022-09-13T17:28:40;5.78;;;1.45;;
71154;SDS011;59375;53.216;5.728;2022-09-13T17:31:05;7.60;;;1.67;;
71154;SDS011;59375;53.216;5.728;2022-09-13T17:33:31;4.95;;;1.63;;
71154;SDS011;59375;53.216;5.728;2022-09-13T17:35:57;6.50;;;1.67;;
71154;SDS011;59375;53.216;5.728;2022-09-13T17:38:24;4.80;;;1.52;;
71154;SDS011;59375;53.216;5.728;2022-09-13T17:41:03;6.25;;;1.50;;
71154;SDS011;59375;53.216;5.728;2022-09-13T17:43:33;5.88;;;1.52;;
71154;SDS011;59375;53.216;5.728;2022-09-13T17:46:04;4.05;;;1.38;;
71154;SDS011;59375;53.216;5.728;2022-09-13T17:48:34;4.07;;;1.50;;
71154;SDS011;59375;53.216;5.728;2022-09-13T17:51:00;4.07;;;1.50;;
71154;SDS011;59375;53.216;5.728;2022-09-13T17:53:27;3.30;;;1.42;;
71154;SDS011;59375;53.216;5.728;2022-09-13T17:55:53;5.68;;;1.45;;
71154;SDS011;59375;53.216;5.728;2022-09-13T17:58:19;4.93;;;1.48;;
71154;SDS011;59375;53.216;5.728;2022-09-13T18:00:44;5.32;;;1.42;;
71154;SDS011;59375;53.216;5.728;2022-09-13T18:03:10;3.20;;;1.35;;
71154;SDS011;59375;53.216;5.728;2022-09-13T18:05:35;4.35;;;1.90;;
71154;SDS011;59375;53.216;5.728;2022-09-13T18:08:01;3.80;;;1.55;;
71154;SDS011;59375;53.216;5.728;2022-09-13T18:10:27;4.32;;;1.60;;
71154;SDS011;59375;53.216;5.728;2022-09-13T18:12:52;4.55;;;1.70;;
71154;SDS011;59375;53.216;5.728;2022-09-13T18:15:18;6.88;;;1.75;;
71154;SDS011;59375;53.216;5.728;2022-09-13T18:17:43;4.95;;;1.50;;
71154;SDS011;59375;53.216;5.728;2022-09-13T18:20:09;7.63;;;1.75;;
71154;SDS011;59375;53.216;5.728;2022-09-13T18:22:34;4.72;;;1.40;;
71154;SDS011;59375;53.216;5.728;2022-09-13T18:25:00;6.88;;;1.75;;
71154;SDS011;59375;53.216;5.728;2022-09-13T18:27:25;6.40;;;1.55;;
71154;SDS011;59375;53.216;5.728;2022-09-13T18:29:51;5.50;;;1.80;;
71154;SDS011;59375;53.216;5.728;2022-09-13T18:32:16;5.47;;;1.70;;
71154;SDS011;59375;53.216;5.728;2022-09-13T18:34:42;4.72;;;1.60;;